sensor_id;sensor_type;location;lat;lon;timestamp;P1;durP1;ratioP1;P2;durP2;ratioP2
12625;SDS011;6378;42.684;23.372;2023-04-03T00:01:06;15.63;;;10.00;;
12625;SDS011;6378;42.684;23.372;2023-04-03T00:03:32;16.53;;;11.43;;
12625;SDS011;6378;42.684;23.372;2023-04-03T00:05:58;21.17;;;11.57;;
12625;SDS011;6378;42.684;23.372;2023-04-03T00:08:24;17.80;;;11.03;;
12625;SDS011;6378;42.684;23.372;2023-04-03T00:10:50;16.13;;;9.80;;
12625;SDS011;6378;42.684;23.372;2023-04-03T00:13:15;13.43;;;9.97;;
12625;SDS011;6378;42.684;23.372;2023-04-03T00:15:41;13.30;;;7.80;;
12625;SDS011;6378;42.684;23.372;2023-04-03T00:18:07;13.13;;;9.63;;
12625;SDS011;6378;42.684;23.372;2023-04-03T00:20:33;14.67;;;9.70;;
12625;SDS011;6378;42.684;23.372;2023-04-03T00:22:59;15.67;;;10.33;;
12625;SDS011;6378;42.684;23.372;2023-04-03T00:25:26;18.03;;;10.80;;
12625;SDS011;6378;42.684;23.372;2023-04-03T00:27:51;17.57;;;10.80;;
12625;SDS011;6378;42.684;23.372;2023-04-03T00:30:17;21.23;;;12.37;;
12625;SDS011;6378;42.684;23.372;2023-04-03T00:32:45;24.30;;;12.40;;
12625;SDS011;6378;42.684;23.372;2023-04-03T00:35:12;21.00;;;11.93;;
12625;SDS011;6378;42.684;23.372;2023-04-03T00:37:40;20.27;;;11.53;;
12625;SDS011;6378;42.684;23.372;2023-04-03T00:40:06;18.33;;;11.40;;
12625;SDS011;6378;42.684;23.372;2023-04-03T00:42:33;17.70;;;9.77;;
12625;SDS011;6378;42.684;23.372;2023-04-03T00:47:25;10.30;;;7.80;;
12625;SDS011;6378;42.684;23.372;2023-04-03T00:49:52;9.80;;;6.90;;
12625;SDS011;6378;42.684;23.372;2023-04-03T00:52:19;10.70;;;7.43;;
12625;SDS011;6378;42.684;23.372;2023-04-03T00:54:48;11.40;;;7.50;;
12625;SDS011;6378;42.684;23.372;2023-04-03T00:57:17;13.97;;;8.43;;
12625;SDS011;6378;42.684;23.372;2023-04-03T00:59:46;14.03;;;8.43;;
12625;SDS011;6378;42.684;23.372;2023-04-03T01:02:16;18.23;;;11.47;;
12625;SDS011;6378;42.684;23.372;2023-04-03T01:04:42;13.80;;;10.00;;
12625;SDS011;6378;42.684;23.372;2023-04-03T01:07:12;12.53;;;8.40;;
12625;SDS011;6378;42.684;23.372;2023-04-03T01:09:42;13.27;;;8.57;;
12625;SDS011;6378;42.684;23.372;2023-04-03T01:12:24;13.90;;;9.00;;
12625;SDS011;6378;42.684;23.372;2023-04-03T01:14:58;12.60;;;8.57;;
12625;SDS011;6378;42.684;23.372;2023-04-03T01:25:30;13.70;;;9.93;;
12625;SDS011;6378;42.684;23.372;2023-04-03T01:27:56;14.93;;;9.90;;
12625;SDS011;6378;42.684;23.372;2023-04-03T01:30:23;20.70;;;13.33;;
12625;SDS011;6378;42.684;23.372;2023-04-03T01:32:55;28.90;;;19.00;;
12625;SDS011;6378;42.684;23.372;2023-04-03T01:35:21;21.47;;;15.53;;
12625;SDS011;6378;42.684;23.372;2023-04-03T01:37:46;26.13;;;20.37;;
12625;SDS011;6378;42.684;23.372;2023-04-03T01:40:12;28.40;;;19.63;;
12625;SDS011;6378;42.684;23.372;2023-04-03T01:42:37;24.93;;;17.80;;
12625;SDS011;6378;42.684;23.372;2023-04-03T01:45:02;23.97;;;17.60;;
12625;SDS011;6378;42.684;23.372;2023-04-03T01:47:28;25.23;;;19.20;;
12625;SDS011;6378;42.684;23.372;2023-04-03T01:49:54;19.60;;;15.97;;
12625;SDS011;6378;42.684;23.372;2023-04-03T01:52:19;24.30;;;18.93;;
12625;SDS011;6378;42.684;23.372;2023-04-03T01:54:45;26.23;;;18.67;;
12625;SDS011;6378;42.684;23.372;2023-04-03T01:57:10;26.43;;;19.33;;
12625;SDS011;6378;42.684;23.372;2023-04-03T01:59:36;28.30;;;19.60;;
12625;SDS011;6378;42.684;23.372;2023-04-03T02:02:02;31.47;;;22.33;;
12625;SDS011;6378;42.684;23.372;2023-04-03T02:04:27;34.07;;;23.10;;
12625;SDS011;6378;42.684;23.372;2023-04-03T02:06:52;34.17;;;22.97;;
12625;SDS011;6378;42.684;23.372;2023-04-03T02:09:18;37.03;;;23.00;;
12625;SDS011;6378;42.684;23.372;2023-04-03T02:11:43;35.50;;;23.53;;
12625;SDS011;6378;42.684;23.372;2023-04-03T02:14:09;34.97;;;22.90;;
12625;SDS011;6378;42.684;23.372;2023-04-03T02:16:34;38.17;;;24.80;;
12625;SDS011;6378;42.684;23.372;2023-04-03T02:19:00;38.87;;;24.17;;
12625;SDS011;6378;42.684;23.372;2023-04-03T02:21:25;30.23;;;20.13;;
12625;SDS011;6378;42.684;23.372;2023-04-03T02:23:50;30.87;;;20.57;;
12625;SDS011;6378;42.684;23.372;2023-04-03T02:26:16;31.67;;;20.77;;
12625;SDS011;6378;42.684;23.372;2023-04-03T02:28:42;30.57;;;20.47;;
12625;SDS011;6378;42.684;23.372;2023-04-03T02:31:08;28.30;;;18.10;;
12625;SDS011;6378;42.684;23.372;2023-04-03T02:33:34;18.67;;;13.63;;
12625;SDS011;6378;42.684;23.372;2023-04-03T02:36:01;28.30;;;17.47;;
12625;SDS011;6378;42.684;23.372;2023-04-03T02:38:28;28.60;;;17.13;;
12625;SDS011;6378;42.684;23.372;2023-04-03T02:40:59;18.10;;;11.60;;
12625;SDS011;6378;42.684;23.372;2023-04-03T02:43:28;27.40;;;17.53;;
12625;SDS011;6378;42.684;23.372;2023-04-03T02:45:54;28.50;;;17.27;;
12625;SDS011;6378;42.684;23.372;2023-04-03T02:48:20;21.67;;;15.57;;
12625;SDS011;6378;42.684;23.372;2023-04-03T02:50:45;20.67;;;14.10;;
12625;SDS011;6378;42.684;23.372;2023-04-03T02:53:10;21.17;;;13.67;;
12625;SDS011;6378;42.684;23.372;2023-04-03T02:55:36;20.17;;;13.07;;
12625;SDS011;6378;42.684;23.372;2023-04-03T02:58:01;20.07;;;12.50;;
12625;SDS011;6378;42.684;23.372;2023-04-03T03:00:28;20.03;;;12.77;;
12625;SDS011;6378;42.684;23.372;2023-04-03T03:02:53;18.17;;;12.17;;
12625;SDS011;6378;42.684;23.372;2023-04-03T03:05:19;15.17;;;11.20;;
12625;SDS011;6378;42.684;23.372;2023-04-03T03:07:44;14.27;;;10.67;;
12625;SDS011;6378;42.684;23.372;2023-04-03T03:10:10;17.07;;;11.23;;
12625;SDS011;6378;42.684;23.372;2023-04-03T03:12:35;15.70;;;10.67;;
12625;SDS011;6378;42.684;23.372;2023-04-03T03:15:01;19.17;;;11.43;;
12625;SDS011;6378;42.684;23.372;2023-04-03T03:17:26;15.63;;;10.77;;
12625;SDS011;6378;42.684;23.372;2023-04-03T03:19:51;14.70;;;8.20;;
12625;SDS011;6378;42.684;23.372;2023-04-03T03:22:17;17.40;;;12.10;;
12625;SDS011;6378;42.684;23.372;2023-04-03T03:24:42;17.33;;;11.53;;
12625;SDS011;6378;42.684;23.372;2023-04-03T03:27:08;16.17;;;10.37;;
12625;SDS011;6378;42.684;23.372;2023-04-03T03:29:33;17.97;;;11.73;;
12625;SDS011;6378;42.684;23.372;2023-04-03T03:31:58;19.93;;;12.23;;
12625;SDS011;6378;42.684;23.372;2023-04-03T03:34:24;21.30;;;13.07;;
12625;SDS011;6378;42.684;23.372;2023-04-03T03:36:50;28.83;;;17.37;;
12625;SDS011;6378;42.684;23.372;2023-04-03T03:39:15;47.93;;;26.80;;
12625;SDS011;6378;42.684;23.372;2023-04-03T03:41:40;36.40;;;22.93;;
12625;SDS011;6378;42.684;23.372;2023-04-03T03:44:06;44.53;;;27.90;;
12625;SDS011;6378;42.684;23.372;2023-04-03T03:46:31;39.57;;;24.47;;
12625;SDS011;6378;42.684;23.372;2023-04-03T03:48:57;32.33;;;19.70;;
12625;SDS011;6378;42.684;23.372;2023-04-03T03:51:22;46.17;;;29.80;;
12625;SDS011;6378;42.684;23.372;2023-04-03T03:53:47;44.57;;;27.77;;
12625;SDS011;6378;42.684;23.372;2023-04-03T03:56:13;42.87;;;28.97;;
12625;SDS011;6378;42.684;23.372;2023-04-03T03:58:38;47.63;;;30.87;;
12625;SDS011;6378;42.684;23.372;2023-04-03T04:01:05;51.90;;;31.13;;
12625;SDS011;6378;42.684;23.372;2023-04-03T04:03:31;50.33;;;31.70;;
12625;SDS011;6378;42.684;23.372;2023-04-03T04:05:57;48.00;;;29.77;;
12625;SDS011;6378;42.684;23.372;2023-04-03T04:08:24;51.80;;;29.87;;
12625;SDS011;6378;42.684;23.372;2023-04-03T04:10:49;48.93;;;29.00;;
12625;SDS011;6378;42.684;23.372;2023-04-03T04:13:15;46.50;;;26.97;;
12625;SDS011;6378;42.684;23.372;2023-04-03T04:15:41;53.33;;;30.63;;
12625;SDS011;6378;42.684;23.372;2023-04-03T04:18:07;50.33;;;28.67;;
12625;SDS011;6378;42.684;23.372;2023-04-03T04:20:33;44.97;;;26.83;;
12625;SDS011;6378;42.684;23.372;2023-04-03T04:22:58;42.63;;;27.83;;
12625;SDS011;6378;42.684;23.372;2023-04-03T04:25:24;43.10;;;26.13;;
12625;SDS011;6378;42.684;23.372;2023-04-03T04:27:49;42.73;;;25.73;;
12625;SDS011;6378;42.684;23.372;2023-04-03T04:30:15;44.00;;;26.10;;
12625;SDS011;6378;42.684;23.372;2023-04-03T04:32:40;44.97;;;26.40;;
12625;SDS011;6378;42.684;23.372;2023-04-03T04:35:06;42.63;;;25.00;;
12625;SDS011;6378;42.684;23.372;2023-04-03T04:37:32;37.63;;;22.27;;
12625;SDS011;6378;42.684;23.372;2023-04-03T04:39:57;33.70;;;21.57;;
12625;SDS011;6378;42.684;23.372;2023-04-03T04:42:22;34.40;;;21.80;;
12625;SDS011;6378;42.684;23.372;2023-04-03T04:44:48;30.50;;;19.77;;
12625;SDS011;6378;42.684;23.372;2023-04-03T04:47:13;33.57;;;20.63;;
12625;SDS011;6378;42.684;23.372;2023-04-03T04:49:39;30.77;;;19.47;;
12625;SDS011;6378;42.684;23.372;2023-04-03T04:52:05;25.23;;;16.90;;
12625;SDS011;6378;42.684;23.372;2023-04-03T04:54:31;33.90;;;19.53;;
12625;SDS011;6378;42.684;23.372;2023-04-03T04:56:56;32.10;;;19.27;;
12625;SDS011;6378;42.684;23.372;2023-04-03T04:59:23;34.23;;;20.00;;
12625;SDS011;6378;42.684;23.372;2023-04-03T05:01:48;39.20;;;21.50;;
12625;SDS011;6378;42.684;23.372;2023-04-03T05:04:14;37.40;;;22.33;;
12625;SDS011;6378;42.684;23.372;2023-04-03T05:06:40;44.90;;;23.40;;
12625;SDS011;6378;42.684;23.372;2023-04-03T05:09:06;40.90;;;21.43;;
12625;SDS011;6378;42.684;23.372;2023-04-03T05:11:31;70.43;;;30.83;;
12625;SDS011;6378;42.684;23.372;2023-04-03T05:13:57;64.20;;;34.67;;
12625;SDS011;6378;42.684;23.372;2023-04-03T05:16:22;74.57;;;38.83;;
12625;SDS011;6378;42.684;23.372;2023-04-03T05:18:48;82.93;;;42.67;;
12625;SDS011;6378;42.684;23.372;2023-04-03T05:21:13;47.27;;;24.00;;
12625;SDS011;6378;42.684;23.372;2023-04-03T05:23:39;45.70;;;22.30;;
12625;SDS011;6378;42.684;23.372;2023-04-03T05:26:05;45.30;;;22.67;;
12625;SDS011;6378;42.684;23.372;2023-04-03T05:28:30;48.50;;;23.93;;
12625;SDS011;6378;42.684;23.372;2023-04-03T05:30:57;32.37;;;17.57;;
12625;SDS011;6378;42.684;23.372;2023-04-03T05:33:23;31.63;;;17.73;;
12625;SDS011;6378;42.684;23.372;2023-04-03T05:35:50;41.43;;;20.47;;
12625;SDS011;6378;42.684;23.372;2023-04-03T05:38:15;34.20;;;19.07;;
12625;SDS011;6378;42.684;23.372;2023-04-03T05:40:41;29.90;;;16.37;;
12625;SDS011;6378;42.684;23.372;2023-04-03T05:43:07;27.17;;;16.60;;
12625;SDS011;6378;42.684;23.372;2023-04-03T05:45:32;29.60;;;16.50;;
12625;SDS011;6378;42.684;23.372;2023-04-03T05:47:57;37.47;;;20.40;;
12625;SDS011;6378;42.684;23.372;2023-04-03T05:50:23;35.03;;;20.60;;
12625;SDS011;6378;42.684;23.372;2023-04-03T05:52:49;44.97;;;23.23;;
12625;SDS011;6378;42.684;23.372;2023-04-03T05:55:17;33.70;;;20.47;;
12625;SDS011;6378;42.684;23.372;2023-04-03T05:57:42;30.73;;;19.43;;
12625;SDS011;6378;42.684;23.372;2023-04-03T06:00:08;29.13;;;20.33;;
12625;SDS011;6378;42.684;23.372;2023-04-03T06:02:37;32.23;;;20.83;;
12625;SDS011;6378;42.684;23.372;2023-04-03T06:05:03;47.17;;;22.30;;
12625;SDS011;6378;42.684;23.372;2023-04-03T06:07:29;35.80;;;20.67;;
12625;SDS011;6378;42.684;23.372;2023-04-03T06:09:55;31.40;;;18.83;;
12625;SDS011;6378;42.684;23.372;2023-04-03T06:12:22;36.23;;;17.73;;
12625;SDS011;6378;42.684;23.372;2023-04-03T06:14:50;25.73;;;15.50;;
12625;SDS011;6378;42.684;23.372;2023-04-03T06:17:16;23.83;;;17.13;;
12625;SDS011;6378;42.684;23.372;2023-04-03T06:19:43;20.47;;;16.73;;
12625;SDS011;6378;42.684;23.372;2023-04-03T06:22:09;22.97;;;16.30;;
12625;SDS011;6378;42.684;23.372;2023-04-03T06:24:36;29.00;;;18.50;;
12625;SDS011;6378;42.684;23.372;2023-04-03T06:27:03;25.40;;;19.37;;
12625;SDS011;6378;42.684;23.372;2023-04-03T06:29:29;28.03;;;17.87;;
12625;SDS011;6378;42.684;23.372;2023-04-03T06:31:54;28.33;;;18.23;;
12625;SDS011;6378;42.684;23.372;2023-04-03T06:34:20;24.57;;;17.23;;
12625;SDS011;6378;42.684;23.372;2023-04-03T06:36:46;26.73;;;16.97;;
12625;SDS011;6378;42.684;23.372;2023-04-03T06:39:15;24.10;;;15.33;;
12625;SDS011;6378;42.684;23.372;2023-04-03T06:41:46;23.37;;;16.27;;
12625;SDS011;6378;42.684;23.372;2023-04-03T06:44:11;26.00;;;16.50;;
12625;SDS011;6378;42.684;23.372;2023-04-03T06:46:40;30.00;;;18.27;;
12625;SDS011;6378;42.684;23.372;2023-04-03T06:49:06;23.83;;;17.33;;
12625;SDS011;6378;42.684;23.372;2023-04-03T06:51:35;27.23;;;17.23;;
12625;SDS011;6378;42.684;23.372;2023-04-03T06:54:01;26.37;;;17.77;;
12625;SDS011;6378;42.684;23.372;2023-04-03T06:56:28;27.07;;;18.87;;
12625;SDS011;6378;42.684;23.372;2023-04-03T06:58:54;27.47;;;18.37;;
12625;SDS011;6378;42.684;23.372;2023-04-03T07:01:22;28.53;;;19.83;;
12625;SDS011;6378;42.684;23.372;2023-04-03T07:03:50;29.97;;;22.20;;
12625;SDS011;6378;42.684;23.372;2023-04-03T07:06:16;32.47;;;21.30;;
12625;SDS011;6378;42.684;23.372;2023-04-03T07:08:45;29.83;;;22.00;;
12625;SDS011;6378;42.684;23.372;2023-04-03T07:11:14;37.17;;;21.00;;
12625;SDS011;6378;42.684;23.372;2023-04-03T07:13:40;44.13;;;25.77;;
12625;SDS011;6378;42.684;23.372;2023-04-03T07:16:06;34.57;;;21.70;;
12625;SDS011;6378;42.684;23.372;2023-04-03T07:18:35;31.27;;;21.47;;
12625;SDS011;6378;42.684;23.372;2023-04-03T07:21:01;38.13;;;21.37;;
12625;SDS011;6378;42.684;23.372;2023-04-03T07:23:26;32.07;;;22.10;;
12625;SDS011;6378;42.684;23.372;2023-04-03T07:25:52;28.97;;;20.70;;
12625;SDS011;6378;42.684;23.372;2023-04-03T07:28:19;35.50;;;21.53;;
12625;SDS011;6378;42.684;23.372;2023-04-03T07:30:46;32.67;;;20.60;;
12625;SDS011;6378;42.684;23.372;2023-04-03T07:33:14;36.30;;;24.20;;
12625;SDS011;6378;42.684;23.372;2023-04-03T07:35:41;37.03;;;25.07;;
12625;SDS011;6378;42.684;23.372;2023-04-03T07:38:07;42.13;;;30.67;;
12625;SDS011;6378;42.684;23.372;2023-04-03T07:40:34;47.37;;;33.63;;
12625;SDS011;6378;42.684;23.372;2023-04-03T07:43:00;38.17;;;26.37;;
12625;SDS011;6378;42.684;23.372;2023-04-03T07:45:25;39.17;;;26.93;;
12625;SDS011;6378;42.684;23.372;2023-04-03T07:47:51;35.23;;;22.63;;
12625;SDS011;6378;42.684;23.372;2023-04-03T07:50:17;32.40;;;19.87;;
12625;SDS011;6378;42.684;23.372;2023-04-03T07:52:43;28.63;;;18.07;;
12625;SDS011;6378;42.684;23.372;2023-04-03T07:55:11;28.50;;;18.90;;
12625;SDS011;6378;42.684;23.372;2023-04-03T07:57:37;31.10;;;17.87;;
12625;SDS011;6378;42.684;23.372;2023-04-03T08:00:05;26.93;;;17.10;;
12625;SDS011;6378;42.684;23.372;2023-04-03T08:02:31;30.67;;;17.57;;
12625;SDS011;6378;42.684;23.372;2023-04-03T08:04:59;25.50;;;19.03;;
12625;SDS011;6378;42.684;23.372;2023-04-03T08:07:25;27.43;;;18.80;;
12625;SDS011;6378;42.684;23.372;2023-04-03T08:09:51;25.93;;;18.23;;
12625;SDS011;6378;42.684;23.372;2023-04-03T08:12:17;21.80;;;17.43;;
12625;SDS011;6378;42.684;23.372;2023-04-03T08:14:43;25.00;;;18.07;;
12625;SDS011;6378;42.684;23.372;2023-04-03T08:17:08;27.20;;;18.97;;
12625;SDS011;6378;42.684;23.372;2023-04-03T08:19:37;28.93;;;20.43;;
12625;SDS011;6378;42.684;23.372;2023-04-03T08:22:03;27.27;;;17.87;;
12625;SDS011;6378;42.684;23.372;2023-04-03T08:24:30;31.47;;;18.47;;
12625;SDS011;6378;42.684;23.372;2023-04-03T08:26:56;24.77;;;18.33;;
12625;SDS011;6378;42.684;23.372;2023-04-03T08:29:22;29.70;;;17.63;;
12625;SDS011;6378;42.684;23.372;2023-04-03T08:31:47;24.30;;;16.83;;
12625;SDS011;6378;42.684;23.372;2023-04-03T08:34:14;26.10;;;18.10;;
12625;SDS011;6378;42.684;23.372;2023-04-03T08:36:40;28.43;;;17.57;;
12625;SDS011;6378;42.684;23.372;2023-04-03T08:39:06;28.67;;;17.70;;
12625;SDS011;6378;42.684;23.372;2023-04-03T08:49:42;28.93;;;19.57;;
12625;SDS011;6378;42.684;23.372;2023-04-03T08:52:13;27.40;;;19.23;;
12625;SDS011;6378;42.684;23.372;2023-04-03T08:54:56;28.50;;;17.87;;
12625;SDS011;6378;42.684;23.372;2023-04-03T08:57:35;27.20;;;17.70;;
12625;SDS011;6378;42.684;23.372;2023-04-03T09:00:14;26.30;;;17.23;;
12625;SDS011;6378;42.684;23.372;2023-04-03T09:02:44;25.15;;;18.45;;
12625;SDS011;6378;42.684;23.372;2023-04-03T09:05:13;28.77;;;19.88;;
12625;SDS011;6378;42.684;23.372;2023-04-03T09:07:48;24.23;;;15.00;;
12625;SDS011;6378;42.684;23.372;2023-04-03T09:10:23;25.23;;;16.02;;
12625;SDS011;6378;42.684;23.372;2023-04-03T09:13:03;30.13;;;16.48;;
12625;SDS011;6378;42.684;23.372;2023-04-03T09:15:36;23.60;;;17.65;;
12625;SDS011;6378;42.684;23.372;2023-04-03T09:23:22;25.50;;;15.95;;
12625;SDS011;6378;42.684;23.372;2023-04-03T09:25:56;21.63;;;15.80;;
12625;SDS011;6378;42.684;23.372;2023-04-03T09:28:28;24.60;;;15.88;;
12625;SDS011;6378;42.684;23.372;2023-04-03T09:30:55;22.55;;;15.57;;
12625;SDS011;6378;42.684;23.372;2023-04-03T09:33:20;23.52;;;15.07;;
12625;SDS011;6378;42.684;23.372;2023-04-03T09:35:47;21.20;;;15.68;;
12625;SDS011;6378;42.684;23.372;2023-04-03T09:38:21;27.08;;;17.25;;
12625;SDS011;6378;42.684;23.372;2023-04-03T09:40:50;33.33;;;22.77;;
12625;SDS011;6378;42.684;23.372;2023-04-03T09:43:32;26.52;;;19.55;;
12625;SDS011;6378;42.684;23.372;2023-04-03T09:46:41;24.40;;;17.75;;
12625;SDS011;6378;42.684;23.372;2023-04-03T09:48:58;20.38;;;16.35;;
12625;SDS011;6378;42.684;23.372;2023-04-03T09:51:26;20.25;;;13.80;;
12625;SDS011;6378;42.684;23.372;2023-04-03T09:53:53;23.58;;;13.23;;
12625;SDS011;6378;42.684;23.372;2023-04-03T09:56:29;18.58;;;12.32;;
12625;SDS011;6378;42.684;23.372;2023-04-03T10:04:13;18.67;;;12.38;;
12625;SDS011;6378;42.684;23.372;2023-04-03T10:06:45;21.98;;;13.40;;
12625;SDS011;6378;42.684;23.372;2023-04-03T10:14:26;20.40;;;14.60;;
12625;SDS011;6378;42.684;23.372;2023-04-03T10:16:55;18.25;;;12.82;;
12625;SDS011;6378;42.684;23.372;2023-04-03T10:22:06;17.42;;;11.23;;
12625;SDS011;6378;42.684;23.372;2023-04-03T10:30:21;13.73;;;10.45;;
12625;SDS011;6378;42.684;23.372;2023-04-03T10:32:54;19.05;;;10.57;;
12625;SDS011;6378;42.684;23.372;2023-04-03T10:40:57;20.45;;;12.68;;
12625;SDS011;6378;42.684;23.372;2023-04-03T10:46:11;16.95;;;10.05;;
12625;SDS011;6378;42.684;23.372;2023-04-03T10:51:45;14.98;;;10.32;;
12625;SDS011;6378;42.684;23.372;2023-04-03T10:59:36;9.60;;;7.53;;
12625;SDS011;6378;42.684;23.372;2023-04-03T11:02:17;13.18;;;8.70;;
12625;SDS011;6378;42.684;23.372;2023-04-03T11:05:13;9.63;;;7.43;;
12625;SDS011;6378;42.684;23.372;2023-04-03T11:07:47;13.13;;;7.15;;
12625;SDS011;6378;42.684;23.372;2023-04-03T11:10:19;9.13;;;6.22;;
12625;SDS011;6378;42.684;23.372;2023-04-03T11:13:33;8.73;;;5.65;;
12625;SDS011;6378;42.684;23.372;2023-04-03T11:15:42;11.10;;;6.28;;
12625;SDS011;6378;42.684;23.372;2023-04-03T11:18:20;28.33;;;20.77;;
12625;SDS011;6378;42.684;23.372;2023-04-03T11:20:59;6.60;;;4.95;;
12625;SDS011;6378;42.684;23.372;2023-04-03T11:23:30;7.80;;;5.87;;
12625;SDS011;6378;42.684;23.372;2023-04-03T11:26:09;9.75;;;6.50;;
12625;SDS011;6378;42.684;23.372;2023-04-03T11:28:38;6.80;;;5.63;;
12625;SDS011;6378;42.684;23.372;2023-04-03T11:40:06;6.37;;;5.03;;
12625;SDS011;6378;42.684;23.372;2023-04-03T11:42:41;4.72;;;4.13;;
12625;SDS011;6378;42.684;23.372;2023-04-03T12:05:57;5.57;;;4.30;;
12625;SDS011;6378;42.684;23.372;2023-04-03T12:19:03;7.27;;;5.00;;
12625;SDS011;6378;42.684;23.372;2023-04-03T12:24:34;5.23;;;4.73;;
12625;SDS011;6378;42.684;23.372;2023-04-03T12:35:35;6.30;;;5.70;;
12625;SDS011;6378;42.684;23.372;2023-04-03T12:38:16;7.70;;;6.90;;
12625;SDS011;6378;42.684;23.372;2023-04-03T12:44:16;6.23;;;5.63;;
12625;SDS011;6378;42.684;23.372;2023-04-03T12:47:02;7.40;;;6.00;;
12625;SDS011;6378;42.684;23.372;2023-04-03T12:49:45;6.80;;;5.70;;
12625;SDS011;6378;42.684;23.372;2023-04-03T12:52:29;6.90;;;6.20;;
12625;SDS011;6378;42.684;23.372;2023-04-03T12:55:14;5.20;;;4.70;;
12625;SDS011;6378;42.684;23.372;2023-04-03T12:57:42;8.40;;;6.07;;
12625;SDS011;6378;42.684;23.372;2023-04-03T13:02:51;7.10;;;5.90;;
12625;SDS011;6378;42.684;23.372;2023-04-03T13:05:18;7.93;;;6.50;;
12625;SDS011;6378;42.684;23.372;2023-04-03T13:07:47;7.47;;;6.67;;
12625;SDS011;6378;42.684;23.372;2023-04-03T13:10:17;8.73;;;7.07;;
12625;SDS011;6378;42.684;23.372;2023-04-03T13:15:19;8.30;;;7.20;;
12625;SDS011;6378;42.684;23.372;2023-04-03T13:17:51;9.23;;;7.57;;
12625;SDS011;6378;42.684;23.372;2023-04-03T13:20:22;9.30;;;8.23;;
12625;SDS011;6378;42.684;23.372;2023-04-03T13:23:07;10.80;;;8.10;;
12625;SDS011;6378;42.684;23.372;2023-04-03T13:25:35;9.23;;;8.23;;
12625;SDS011;6378;42.684;23.372;2023-04-03T13:28:05;10.13;;;8.70;;
12625;SDS011;6378;42.684;23.372;2023-04-03T13:30:34;12.83;;;9.90;;
12625;SDS011;6378;42.684;23.372;2023-04-03T13:33:05;11.03;;;8.90;;
12625;SDS011;6378;42.684;23.372;2023-04-03T13:35:43;12.80;;;9.73;;
12625;SDS011;6378;42.684;23.372;2023-04-03T13:40:49;11.07;;;9.40;;
12625;SDS011;6378;42.684;23.372;2023-04-03T13:43:17;9.77;;;7.73;;
12625;SDS011;6378;42.684;23.372;2023-04-03T13:45:56;8.73;;;7.90;;
12625;SDS011;6378;42.684;23.372;2023-04-03T13:48:34;12.67;;;8.90;;
12625;SDS011;6378;42.684;23.372;2023-04-03T13:51:02;11.10;;;10.00;;
12625;SDS011;6378;42.684;23.372;2023-04-03T13:53:32;13.00;;;10.23;;
12625;SDS011;6378;42.684;23.372;2023-04-03T13:56:09;13.10;;;9.87;;
12625;SDS011;6378;42.684;23.372;2023-04-03T14:01:23;10.63;;;9.30;;
12625;SDS011;6378;42.684;23.372;2023-04-03T14:06:21;11.77;;;10.47;;
12625;SDS011;6378;42.684;23.372;2023-04-03T14:08:47;12.10;;;10.77;;
12625;SDS011;6378;42.684;23.372;2023-04-03T14:11:15;8.80;;;7.90;;
12625;SDS011;6378;42.684;23.372;2023-04-03T14:13:41;12.50;;;9.87;;
12625;SDS011;6378;42.684;23.372;2023-04-03T14:16:07;12.30;;;11.00;;
12625;SDS011;6378;42.684;23.372;2023-04-03T14:18:32;14.67;;;13.10;;
12625;SDS011;6378;42.684;23.372;2023-04-03T14:20:58;14.27;;;12.60;;
12625;SDS011;6378;42.684;23.372;2023-04-03T14:23:23;11.87;;;10.40;;
12625;SDS011;6378;42.684;23.372;2023-04-03T14:25:48;11.40;;;10.20;;
12625;SDS011;6378;42.684;23.372;2023-04-03T14:28:16;10.00;;;8.40;;
12625;SDS011;6378;42.684;23.372;2023-04-03T14:30:46;14.67;;;10.73;;
12625;SDS011;6378;42.684;23.372;2023-04-03T14:33:16;17.97;;;12.63;;
12625;SDS011;6378;42.684;23.372;2023-04-03T14:35:44;21.27;;;14.97;;
12625;SDS011;6378;42.684;23.372;2023-04-03T14:38:24;16.10;;;11.97;;
12625;SDS011;6378;42.684;23.372;2023-04-03T14:40:51;12.27;;;10.63;;
12625;SDS011;6378;42.684;23.372;2023-04-03T14:43:17;11.20;;;8.97;;
12625;SDS011;6378;42.684;23.372;2023-04-03T14:45:43;14.77;;;12.20;;
12625;SDS011;6378;42.684;23.372;2023-04-03T14:48:11;13.13;;;10.40;;
12625;SDS011;6378;42.684;23.372;2023-04-03T14:50:43;10.13;;;8.67;;
12625;SDS011;6378;42.684;23.372;2023-04-03T14:53:10;11.23;;;9.63;;
12625;SDS011;6378;42.684;23.372;2023-04-03T14:55:37;10.90;;;9.63;;
12625;SDS011;6378;42.684;23.372;2023-04-03T14:58:03;7.27;;;6.60;;
12625;SDS011;6378;42.684;23.372;2023-04-03T15:00:28;9.70;;;8.23;;
12625;SDS011;6378;42.684;23.372;2023-04-03T15:02:54;6.47;;;5.87;;
12625;SDS011;6378;42.684;23.372;2023-04-03T15:05:19;8.63;;;7.17;;
12625;SDS011;6378;42.684;23.372;2023-04-03T15:07:54;8.47;;;7.50;;
12625;SDS011;6378;42.684;23.372;2023-04-03T15:10:25;8.67;;;7.00;;
12625;SDS011;6378;42.684;23.372;2023-04-03T15:12:52;6.90;;;6.00;;
12625;SDS011;6378;42.684;23.372;2023-04-03T15:15:19;7.80;;;7.00;;
12625;SDS011;6378;42.684;23.372;2023-04-03T15:17:45;7.97;;;7.07;;
12625;SDS011;6378;42.684;23.372;2023-04-03T15:20:16;9.83;;;8.17;;
12625;SDS011;6378;42.684;23.372;2023-04-03T15:22:43;8.50;;;6.93;;
12625;SDS011;6378;42.684;23.372;2023-04-03T15:25:09;7.63;;;6.47;;
12625;SDS011;6378;42.684;23.372;2023-04-03T15:27:35;6.20;;;5.60;;
12625;SDS011;6378;42.684;23.372;2023-04-03T15:30:01;6.77;;;6.07;;
12625;SDS011;6378;42.684;23.372;2023-04-03T15:32:27;7.03;;;6.32;;
12625;SDS011;6378;42.684;23.372;2023-04-03T15:34:53;8.37;;;6.67;;
12625;SDS011;6378;42.684;23.372;2023-04-03T15:37:19;8.40;;;7.13;;
12625;SDS011;6378;42.684;23.372;2023-04-03T15:39:44;7.70;;;7.00;;
12625;SDS011;6378;42.684;23.372;2023-04-03T15:42:10;8.87;;;7.97;;
12625;SDS011;6378;42.684;23.372;2023-04-03T15:44:37;8.13;;;7.20;;
12625;SDS011;6378;42.684;23.372;2023-04-03T15:47:03;16.50;;;12.93;;
12625;SDS011;6378;42.684;23.372;2023-04-03T15:49:29;13.43;;;12.07;;
12625;SDS011;6378;42.684;23.372;2023-04-03T15:51:57;14.37;;;11.53;;
12625;SDS011;6378;42.684;23.372;2023-04-03T15:54:23;14.00;;;12.50;;
12625;SDS011;6378;42.684;23.372;2023-04-03T15:56:49;20.27;;;16.80;;
12625;SDS011;6378;42.684;23.372;2023-04-03T15:59:15;25.30;;;21.87;;
12625;SDS011;6378;42.684;23.372;2023-04-03T16:01:40;23.77;;;20.30;;
12625;SDS011;6378;42.684;23.372;2023-04-03T16:04:07;15.93;;;12.33;;
12625;SDS011;6378;42.684;23.372;2023-04-03T16:06:34;16.93;;;11.50;;
12625;SDS011;6378;42.684;23.372;2023-04-03T16:09:00;10.97;;;9.10;;
12625;SDS011;6378;42.684;23.372;2023-04-03T16:11:25;12.83;;;10.30;;
12625;SDS011;6378;42.684;23.372;2023-04-03T16:13:52;14.23;;;11.30;;
12625;SDS011;6378;42.684;23.372;2023-04-03T16:16:18;22.47;;;19.63;;
12625;SDS011;6378;42.684;23.372;2023-04-03T16:18:44;26.73;;;22.10;;
12625;SDS011;6378;42.684;23.372;2023-04-03T16:21:11;26.90;;;21.83;;
12625;SDS011;6378;42.684;23.372;2023-04-03T16:23:39;28.87;;;22.57;;
12625;SDS011;6378;42.684;23.372;2023-04-03T16:26:06;33.03;;;25.90;;
12625;SDS011;6378;42.684;23.372;2023-04-03T16:28:31;19.63;;;15.77;;
12625;SDS011;6378;42.684;23.372;2023-04-03T16:30:57;25.53;;;20.03;;
12625;SDS011;6378;42.684;23.372;2023-04-03T16:33:24;23.70;;;17.63;;
12625;SDS011;6378;42.684;23.372;2023-04-03T16:35:50;16.20;;;12.93;;
12625;SDS011;6378;42.684;23.372;2023-04-03T16:38:16;23.67;;;16.83;;